Time;durP1;ratioP1;P1;durP2;ratioP2;P2;SDS_P1;SDS_P2;PMS_P1;PMS_P2;Temp;Humidity;BMP_temperature;BMP_pressure;BME280_temperature;BME280_humidity;BME280_pressure;Samples;Min_cycle;Max_cycle;Signal;HPM_P1;HPM_P2
2024/03/27 00:02:18;;;;;;;3.20;1.90;;;8.70;99.90;;;-144.05;44.03;56965.66;5067702;28;20024;-81
2024/03/27 00:04:43;;;;;;;3.22;2.22;;;8.30;99.90;;;-144.05;44.07;56916.81;5077647;28;20467;-80
2024/03/27 00:07:09;;;;;;;3.25;2.03;;;8.20;99.90;;;-144.05;43.95;56946.53;5062437;28;20086;-80
2024/03/27 00:09:36;;;;;;;4.80;2.35;;;;;;;-144.05;43.84;56957.16;5080924;28;20020;-81
2024/03/27 00:12:02;;;;;;;4.65;1.88;;;8.10;99.90;;;-144.05;43.84;56935.91;5061379;28;20036;-80
2024/03/27 00:14:28;;;;;;;5.18;2.30;;;8.20;99.90;;;-144.05;43.72;56950.78;5062781;28;20035;-80
2024/03/27 00:16:54;;;;;;;3.55;2.03;;;8.30;99.90;;;-144.05;44.32;56967.78;5059700;28;20028;-78
2024/03/27 00:19:21;;;;;;;6.13;2.08;;;8.00;99.90;;;-144.05;44.03;56921.06;5082014;28;20030;-79
2024/03/27 00:21:46;;;;;;;3.75;2.50;;;14.40;99.90;;;-144.05;43.91;56942.28;5065639;28;20097;-80
2024/03/27 00:24:12;;;;;;;3.85;2.17;;;8.30;99.90;;;-144.05;44.23;56955.03;5070734;28;20485;-80
2024/03/27 00:26:38;;;;;;;3.75;2.03;;;;;;;-144.05;44.19;56974.16;5087786;28;20028;-80
2024/03/27 00:29:05;;;;;;;4.25;1.90;;;;;;;-144.05;44.29;56927.41;5090867;28;20466;-80
2024/03/27 00:31:32;;;;;;;2.40;1.63;;;7.60;99.90;;;-144.05;44.12;56933.78;5093467;28;20020;-80
2024/03/27 00:33:57;;;;;;;5.68;1.77;;;7.50;99.90;;;-144.05;44.27;56940.16;5093527;28;20033;-80
2024/03/27 00:36:23;;;;;;;3.08;1.90;;;;;;;-144.05;44.26;56955.03;5070291;28;20473;-80
2024/03/27 00:38:50;;;;;;;4.15;1.80;;;;;;;-144.05;44.40;56935.91;5070429;28;20078;-78
2024/03/27 00:41:15;;;;;;;5.10;2.03;;;8.40;99.90;;;-144.05;44.46;56944.41;5075408;28;20024;-81
2024/03/27 00:43:41;;;;;;;3.33;1.80;;;7.60;99.90;;;-144.05;44.37;56938.03;5072777;28;20028;-79
2024/03/27 00:46:07;;;;;;;3.05;1.90;;;;;;;-144.05;44.68;56938.03;5094512;28;20366;-81
2024/03/27 00:48:34;;;;;;;3.13;1.77;;;8.80;99.90;;;-144.05;44.83;56923.19;5069262;28;20111;-80
2024/03/27 00:51:00;;;;;;;5.72;2.17;;;10.30;99.90;;;-144.05;45.01;56940.16;5068506;28;20027;-80
2024/03/27 00:53:27;;;;;;;2.17;1.50;;;10.40;99.90;;;-144.05;44.98;56942.28;5062722;28;20390;-81
2024/03/27 00:55:59;;;;;;;2.92;1.50;;;14.10;99.90;;;-144.05;44.63;56957.16;5080274;28;20021;-79
2024/03/27 00:58:26;;;;;;;2.13;1.60;;;14.20;99.90;;;-144.05;44.64;56933.78;5075600;28;20064;-80
2024/03/27 01:00:52;;;;;;;4.30;2.20;;;8.20;99.90;;;-144.05;45.11;56950.78;5071423;28;20037;-80
2024/03/27 01:03:18;;;;;;;9.18;3.85;;;11.10;99.90;;;-144.05;46.47;56929.53;5071660;28;20062;-80
2024/03/27 01:05:44;;;;;;;8.40;4.30;;;8.60;99.90;;;-144.05;47.13;56959.28;5085604;28;20489;-81
2024/03/27 01:08:11;;;;;;;8.60;4.82;;;;;;;-144.05;48.13;56955.03;5061289;28;20033;-80
2024/03/27 01:10:39;;;;;;;4.57;2.80;;;8.80;99.90;;;-144.05;47.39;56963.53;5072969;28;20085;-80
2024/03/27 01:13:09;;;;;;;7.00;3.83;;;8.00;99.90;;;-144.05;47.89;56948.66;5068414;28;20024;-79
2024/03/27 01:15:36;;;;;;;5.95;2.90;;;11.20;99.90;;;-144.05;48.83;56948.66;5093655;28;20024;-80
2024/03/27 01:18:04;;;;;;;4.32;3.03;;;8.60;99.90;;;-144.05;49.24;56938.03;5066988;28;20128;-80
2024/03/27 01:20:31;;;;;;;5.25;3.08;;;14.00;99.90;;;-144.05;49.66;56963.53;5071380;28;20438;-80
2024/03/27 01:22:57;;;;;;;8.30;4.20;;;13.60;99.90;;;-144.05;50.10;56957.16;5068691;28;20078;-80
2024/03/27 01:25:23;;;;;;;6.25;3.55;;;11.00;99.90;;;-144.05;50.60;56969.91;5077668;28;20067;-80
2024/03/27 01:27:51;;;;;;;6.25;3.00;;;;;;;-144.05;50.70;56961.41;5090966;28;20028;-80
2024/03/27 01:30:17;;;;;;;8.02;3.20;;;7.80;99.90;;;-144.05;51.09;56929.53;5070783;28;20116;-78
2024/03/27 01:32:44;;;;;;;5.93;3.28;;;8.50;99.90;;;-144.05;52.07;56942.28;5085437;28;20488;-81
2024/03/27 01:35:10;;;;;;;6.68;3.20;;;;;;;-144.05;52.70;56948.66;5069036;28;20378;-80
2024/03/27 01:37:37;;;;;;;7.60;3.53;;;8.10;99.90;;;-144.05;52.88;56957.16;5081506;28;20027;-80
2024/03/27 01:40:04;;;;;;;4.72;2.60;;;13.90;99.90;;;-144.05;53.01;56942.28;5068384;28;20025;-80
2024/03/27 01:42:34;;;;;;;7.13;2.72;;;9.10;99.90;;;-144.05;53.70;56955.03;5081138;28;20396;-81
2024/03/27 01:45:02;;;;;;;3.38;2.35;;;;;;;-144.05;53.50;56929.53;5085340;28;20025;-82
2024/03/27 01:47:28;;;;;;;4.00;2.50;;;10.90;99.90;;;-144.05;52.79;56957.16;5089239;28;20027;-79
2024/03/27 01:49:57;;;;;;;6.93;3.30;;;9.20;99.90;;;-144.05;52.88;56955.03;5082158;28;20051;-81
2024/03/27 01:52:25;;;;;;;5.85;2.70;;;;;;;-144.05;52.95;56950.78;5077143;28;20026;-80
2024/03/27 01:54:51;;;;;;;6.88;3.60;;;10.70;99.90;;;-144.05;52.68;56961.41;5081439;28;20103;-79
2024/03/27 01:57:19;;;;;;;4.18;2.70;;;7.30;99.90;;;-144.05;53.08;56933.78;5058276;28;20027;-80
2024/03/27 01:59:46;;;;;;;5.40;3.08;;;;;;;-144.05;54.46;56972.03;5068093;28;20489;-78
2024/03/27 02:02:14;;;;;;;4.93;2.60;;;7.60;99.90;;;-144.05;55.23;56961.41;5093286;28;20032;-81
2024/03/27 02:04:40;;;;;;;7.05;2.78;;;;;;;-144.05;56.32;56959.28;5097284;28;20427;-80
2024/03/27 02:07:06;;;;;;;6.32;2.85;;;8.30;99.90;;;-144.05;57.49;56942.28;5088235;28;20107;-80
2024/03/27 02:09:32;;;;;;;4.07;2.47;;;8.10;99.90;;;-144.05;57.76;56950.78;5089219;28;20040;-80
2024/03/27 02:12:00;;;;;;;14.05;2.75;;;10.60;99.90;;;-144.05;58.60;56969.91;5064291;28;20111;-80
2024/03/27 02:14:26;;;;;;;3.38;2.17;;;7.50;99.90;;;-144.05;58.80;56946.53;5088432;28;20085;-79
2024/03/27 02:16:59;;;;;;;6.15;2.78;;;10.90;99.90;;;-144.05;59.63;56963.53;5070993;28;20040;-80
2024/03/27 02:19:25;;;;;;;6.65;3.05;;;7.40;99.90;;;-144.05;58.95;56967.78;5079107;28;20055;-77
2024/03/27 02:21:52;;;;;;;6.05;3.13;;;7.10;99.90;;;-144.05;59.47;56938.03;5068334;28;20122;-80
2024/03/27 02:24:54;;;;;;;5.10;3.05;;;7.60;99.90;;;-144.05;59.79;56965.66;5081002;28;20028;-80
2024/03/27 02:27:20;;;;;;;5.03;3.22;;;10.80;99.90;;;-144.05;59.76;56963.53;5061206;28;20389;-80
2024/03/27 02:29:46;;;;;;;5.97;3.15;;;7.40;99.90;;;-144.05;59.34;56948.66;5087062;28;20028;-81
2024/03/27 02:32:12;;;;;;;5.60;3.20;;;10.60;99.90;;;-144.05;59.19;56933.78;5091351;28;20035;-80
2024/03/27 02:34:38;;;;;;;8.00;3.67;;;7.70;99.90;;;-144.05;58.68;56938.03;5066704;28;20024;-78
2024/03/27 02:37:04;;;;;;;4.70;3.08;;;11.00;99.90;;;-144.05;58.76;56952.91;5063692;28;20048;-80
2024/03/27 02:39:30;;;;;;;7.55;4.28;;;7.60;99.90;;;-144.05;59.15;56961.41;5070600;28;20028;-79
2024/03/27 02:41:56;;;;;;;14.85;7.13;;;7.50;99.90;;;-144.05;59.21;56974.16;5084911;28;20027;-80
2024/03/27 02:44:22;;;;;;;9.63;5.80;;;;;;;-144.05;59.29;56963.53;5091443;28;20072;-80
2024/03/27 02:46:48;;;;;;;8.73;5.20;;;7.40;99.90;;;-144.05;59.51;56918.94;5083813;28;20024;-80
2024/03/27 02:49:15;;;;;;;9.45;4.53;;;11.00;99.90;;;-144.05;59.75;56959.28;5089781;28;20090;-79
2024/03/27 02:51:40;;;;;;;6.05;3.42;;;10.50;99.90;;;-144.05;59.99;56950.78;5073764;28;20572;-80
2024/03/27 02:54:06;;;;;;;7.25;2.92;;;7.40;99.90;;;-144.05;60.36;56942.28;5073502;28;20068;-80
2024/03/27 02:56:32;;;;;;;6.38;3.40;;;9.10;99.90;;;-144.05;60.26;56961.41;5076185;28;20029;-81
2024/03/27 02:58:58;;;;;;;5.85;3.13;;;7.10;99.90;;;-144.05;60.75;56972.03;5090218;28;20020;-81
2024/03/27 03:01:24;;;;;;;9.88;2.65;;;;;;;-144.05;61.03;56976.28;5084371;28;20031;-78
2024/03/27 03:03:50;;;;;;;4.65;2.88;;;;;;;-144.05;61.20;56974.16;5072426;28;20059;-78
2024/03/27 03:06:16;;;;;;;4.50;2.40;;;7.30;99.90;;;-144.05;61.32;56933.78;5091549;28;20029;-82
2024/03/27 03:08:42;;;;;;;5.68;2.55;;;;;;;-144.05;61.13;56978.41;5088278;28;20036;-79
2024/03/27 03:11:08;;;;;;;4.85;2.90;;;9.10;99.90;;;-144.05;61.44;56959.28;5093795;28;20070;-80
2024/03/27 03:13:34;;;;;;;4.38;2.10;;;;;;;-144.05;60.63;56965.66;5086695;28;20025;-82
2024/03/27 03:16:00;;;;;;;6.53;2.53;;;7.10;99.90;;;-144.05;60.53;56961.41;5089521;28;20031;-79
2024/03/27 03:18:26;;;;;;;4.88;2.22;;;7.30;99.90;;;-144.05;59.80;56929.53;5064915;28;20020;-82
2024/03/27 03:21:04;;;;;;;3.95;2.10;;;7.40;99.90;;;-144.05;58.78;56944.41;5085398;28;20048;-82
2024/03/27 03:23:32;;;;;;;3.85;2.05;;;7.80;99.90;;;-144.05;57.71;56963.53;5066394;28;20028;-80
2024/03/27 03:25:59;;;;;;;3.25;2.17;;;7.70;99.90;;;-144.05;56.09;56955.03;5089462;28;20037;-82
2024/03/27 03:28:25;;;;;;;3.28;2.30;;;11.00;99.90;;;-144.05;54.01;56957.16;5058301;28;20088;-80
2024/03/27 03:30:51;;;;;;;5.70;2.03;;;;;;;-144.05;52.17;56948.66;5059400;28;20518;-79
2024/03/27 03:33:17;;;;;;;2.67;2.00;;;8.50;99.90;;;-144.05;50.88;56925.28;5085683;28;20432;-80
2024/03/27 03:35:54;;;;;;;5.20;2.38;;;8.60;99.90;;;-144.05;49.58;56938.03;5072618;28;20021;-80
2024/03/27 03:38:21;;;;;;;3.85;2.20;;;;;;;-144.05;49.13;56942.28;5076520;28;20067;-79
2024/03/27 03:41:16;;;;;;;3.78;1.83;;;8.40;99.90;;;-144.05;49.25;56955.03;5053947;28;20150;-79
2024/03/27 03:43:42;;;;;;;3.08;1.92;;;7.40;99.90;;;-144.05;48.97;56959.28;5055683;28;20044;-78
2024/03/27 03:46:08;;;;;;;6.00;2.30;;;;;;;-144.05;48.74;56933.78;5063161;28;20110;-78
2024/03/27 03:48:34;;;;;;;3.17;1.90;;;7.40;99.90;;;-144.05;49.23;56955.03;5077431;28;20158;-80
2024/03/27 03:51:00;;;;;;;4.43;2.72;;;;;;;-144.05;48.85;56927.41;5068645;28;20489;-80
2024/03/27 03:53:26;;;;;;;2.67;1.90;;;;;;;-144.05;48.46;56948.66;5071801;28;20143;-78
2024/03/27 03:55:52;;;;;;;4.07;1.70;;;7.80;99.90;;;-144.05;48.70;56955.03;5062654;28;20032;-79
2024/03/27 03:58:19;;;;;;;3.85;2.10;;;7.20;99.90;;;-144.05;48.18;56978.41;5056888;28;20032;-79
2024/03/27 04:00:52;;;;;;;3.50;1.83;;;7.60;99.90;;;-144.05;48.27;56931.66;5078122;28;20051;-79
2024/03/27 04:03:18;;;;;;;5.40;2.00;;;7.60;99.90;;;-144.05;48.49;56950.78;5074913;28;20025;-79
2024/03/27 04:05:44;;;;;;;4.82;2.05;;;14.10;99.90;;;-144.05;49.06;56946.53;5060395;28;20058;-80
2024/03/27 04:08:10;;;;;;;5.10;2.30;;;7.90;99.90;;;-144.05;49.19;56942.28;5072399;28;20040;-80
2024/03/27 04:10:44;;;;;;;3.92;2.28;;;11.10;99.90;;;-144.05;49.59;56955.03;5054018;28;20028;-78
2024/03/27 04:13:10;;;;;;;8.98;2.58;;;7.50;99.90;;;-144.05;50.34;56963.53;5076211;28;20020;-80
2024/03/27 04:15:40;;;;;;;3.28;2.53;;;11.10;99.90;;;-144.05;50.10;56963.53;5072452;28;20034;-80
2024/03/27 04:18:06;;;;;;;6.80;2.55;;;7.60;99.90;;;-144.05;49.91;56957.16;5057446;28;20028;-80
2024/03/27 04:20:32;;;;;;;4.65;2.28;;;8.00;99.90;;;-144.05;49.74;56963.53;5084273;28;20066;-80
2024/03/27 04:22:59;;;;;;;4.05;2.33;;;;;;;-144.05;49.64;56950.78;5059489;28;20125;-80
2024/03/27 04:25:24;;;;;;;5.53;2.63;;;7.60;99.90;;;-144.05;50.17;56944.41;5081090;28;20029;-80
2024/03/27 04:27:52;;;;;;;9.48;4.30;;;;;;;-144.05;51.22;56931.66;5062253;28;20028;-80
2024/03/27 04:30:18;;;;;;;3.78;2.42;;;8.20;99.90;;;-144.05;52.11;56948.66;5080366;28;20025;-79
2024/03/27 04:32:45;;;;;;;4.50;2.15;;;7.50;99.90;;;-144.05;53.07;56944.41;5054202;28;20047;-80
2024/03/27 04:35:11;;;;;;;5.50;2.45;;;8.20;99.90;;;-144.05;53.78;56938.03;5071917;28;20028;-82
2024/03/27 04:37:37;;;;;;;2.70;2.13;;;11.00;99.90;;;-144.05;54.13;56963.53;5093286;28;20028;-81
2024/03/27 04:40:09;;;;;;;4.45;2.38;;;8.00;99.90;;;-144.05;54.39;56969.91;5080062;28;20024;-79
2024/03/27 04:42:36;;;;;;;4.75;2.65;;;7.60;99.90;;;-144.05;54.47;56965.66;5065329;28;20028;-79
2024/03/27 04:45:08;;;;;;;6.40;2.60;;;10.60;99.90;;;-144.05;53.91;56965.66;5071723;28;20055;-80
2024/03/27 04:47:36;;;;;;;7.47;2.83;;;7.70;99.90;;;-144.05;54.12;56963.53;5050236;28;20031;-79
2024/03/27 04:50:04;;;;;;;4.43;2.58;;;8.40;99.90;;;-144.05;53.40;56933.78;5049703;28;20033;-79
2024/03/27 04:52:31;;;;;;;4.55;2.40;;;7.30;99.90;;;-144.05;53.39;56972.03;5054316;28;20017;-80
2024/03/27 04:54:57;;;;;;;6.30;2.42;;;;;;;-144.05;53.54;56938.03;5075984;28;20477;-79
2024/03/27 04:57:23;;;;;;;4.70;2.55;;;7.40;99.90;;;-144.05;53.30;56925.28;5045164;28;20073;-80
2024/03/27 04:59:49;;;;;;;5.35;2.85;;;8.80;99.90;;;-144.05;53.68;56961.41;5057824;28;20541;-79
2024/03/27 05:02:15;;;;;;;6.88;3.67;;;9.20;99.90;;;-144.05;53.87;56946.53;5087908;28;20048;-82
2024/03/27 05:04:41;;;;;;;5.40;2.70;;;;;;;-144.05;54.07;56972.03;5084471;28;20059;-79
2024/03/27 05:07:07;;;;;;;3.97;2.63;;;8.00;99.90;;;-144.05;54.08;56923.19;5074857;28;20029;-78
2024/03/27 05:09:35;;;;;;;6.43;2.72;;;8.40;99.90;;;-144.05;54.17;56963.53;5087105;28;20032;-78
2024/03/27 05:12:02;;;;;;;10.55;3.28;;;8.30;99.90;;;-144.05;54.46;56925.28;5057276;28;20111;-80
2024/03/27 05:14:29;;;;;;;5.20;2.65;;;7.90;99.90;;;-144.05;54.47;56955.03;5068794;28;20020;-79
2024/03/27 05:16:56;;;;;;;6.18;2.88;;;;;;;-144.05;54.27;56955.03;5062091;28;20086;-79
2024/03/27 05:19:23;;;;;;;5.82;2.97;;;;;;;-144.05;54.17;56963.53;5071613;28;20023;-79
2024/03/27 05:21:53;;;;;;;4.40;2.53;;;10.50;99.90;;;-144.05;54.11;56950.78;5076614;28;20039;-78
2024/03/27 05:24:20;;;;;;;6.60;2.97;;;7.30;99.90;;;-144.05;54.93;56940.16;5086985;28;20020;-78
2024/03/27 05:26:51;;;;;;;4.82;2.95;;;7.40;99.90;;;-144.05;54.20;56963.53;5083587;28;20405;-79
2024/03/27 05:29:17;;;;;;;5.47;2.78;;;7.80;99.90;;;-144.05;53.84;56942.28;5081605;28;20032;-80
2024/03/27 05:31:55;;;;;;;3.78;2.53;;;7.40;99.90;;;-144.05;53.56;56948.66;5085894;28;20497;-79
2024/03/27 05:34:23;;;;;;;7.15;2.50;;;10.90;99.90;;;-144.05;53.63;56944.41;5065493;28;20027;-80
2024/03/27 05:36:49;;;;;;;6.30;2.60;;;7.90;99.90;;;-144.05;53.66;56933.78;5071409;28;20138;-80
2024/03/27 05:39:15;;;;;;;4.55;2.17;;;9.10;99.90;;;-144.05;54.08;56950.78;5065383;28;20040;-78
2024/03/27 05:41:45;;;;;;;4.70;2.83;;;8.30;99.90;;;-144.05;54.51;56918.94;5064659;28;20024;-78
2024/03/27 05:44:12;;;;;;;5.07;2.80;;;7.50;99.90;;;-144.05;55.99;56959.28;5075401;28;20025;-80
2024/03/27 05:46:40;;;;;;;5.05;2.53;;;7.80;99.90;;;-144.05;56.57;56952.91;5067315;28;20028;-79
2024/03/27 05:49:07;;;;;;;5.88;2.83;;;;;;;-144.05;56.74;56944.41;5082341;28;20062;-80
2024/03/27 05:51:39;;;;;;;5.82;2.30;;;10.50;99.90;;;-144.05;55.71;56940.16;5056448;28;20024;-79
2024/03/27 05:54:05;;;;;;;4.25;3.05;;;;;;;-144.05;55.52;56933.78;5078957;28;20373;-79
2024/03/27 05:56:31;;;;;;;5.43;2.83;;;7.80;99.90;;;-144.05;55.17;56948.66;5078467;28;20073;-78
2024/03/27 05:58:57;;;;;;;4.28;2.38;;;7.60;99.90;;;-144.05;54.56;56933.78;5068856;28;20058;-78
2024/03/27 06:01:23;;;;;;;6.63;3.35;;;10.50;99.90;;;-144.05;54.99;56955.03;5088350;28;20057;-79
2024/03/27 06:03:52;;;;;;;6.80;3.10;;;8.20;99.90;;;-144.05;54.82;56933.78;5069319;28;20028;-79
2024/03/27 06:06:26;;;;;;;4.07;2.40;;;8.00;99.90;;;-144.05;54.47;56933.78;5086082;28;20096;-78
2024/03/27 06:08:52;;;;;;;4.75;3.15;;;7.90;99.90;;;-144.05;54.87;56950.78;5084410;28;20079;-78
2024/03/27 06:11:18;;;;;;;3.90;3.47;;;8.10;99.90;;;-144.05;54.70;56950.78;5086422;28;20052;-79
2024/03/27 06:13:44;;;;;;;5.78;3.10;;;7.80;99.90;;;-144.05;54.25;56948.66;5089463;28;20027;-78
2024/03/27 06:16:10;;;;;;;7.50;2.90;;;7.70;99.90;;;-144.05;53.77;56969.91;5081958;28;20021;-80
2024/03/27 06:18:36;;;;;;;6.35;2.75;;;7.70;99.90;;;-144.05;53.69;56946.53;5086246;28;20031;-79
2024/03/27 06:21:03;;;;;;;6.03;2.92;;;7.50;99.90;;;-144.05;53.27;56929.53;5063576;28;20059;-78
2024/03/27 06:23:29;;;;;;;5.18;2.90;;;7.90;99.90;;;-144.05;53.08;56944.41;5088659;28;20027;-79
2024/03/27 06:26:01;;;;;;;9.02;3.50;;;;;;;-144.05;53.63;56935.91;5078614;28;20020;-77
2024/03/27 06:28:28;;;;;;;4.88;2.67;;;7.90;99.90;;;-144.05;53.34;56950.78;5086929;28;20551;-78
2024/03/27 06:30:59;;;;;;;6.25;2.75;;;8.00;99.90;;;-144.05;53.49;56942.28;5086121;28;20052;-80
2024/03/27 06:33:26;;;;;;;5.57;3.10;;;13.60;99.90;;;-144.05;53.64;56940.16;5068232;28;20060;-80
2024/03/27 06:35:53;;;;;;;5.28;2.80;;;8.10;99.90;;;-144.05;53.21;56940.16;5084931;28;20031;-80
2024/03/27 06:38:22;;;;;;;9.55;3.25;;;8.60;99.90;;;-144.05;52.81;56948.66;5083338;28;20042;-80
2024/03/27 06:40:49;;;;;;;6.40;3.30;;;7.60;99.90;;;-144.05;52.79;56938.03;5071443;28;20035;-80
2024/03/27 06:43:15;;;;;;;8.32;3.88;;;13.90;99.90;;;-144.05;53.04;56959.28;5066744;28;20028;-81
2024/03/27 06:45:42;;;;;;;11.40;3.72;;;8.40;99.90;;;-144.05;53.13;56927.41;5081964;28;20034;-79
2024/03/27 06:48:10;;;;;;;8.90;2.78;;;14.10;99.90;;;-144.05;52.77;56929.53;5061125;28;20064;-83
2024/03/27 06:50:36;;;;;;;10.23;3.40;;;13.80;99.90;;;-144.05;52.82;56914.69;5061498;28;20024;-80
2024/03/27 06:53:02;;;;;;;12.63;3.10;;;7.50;99.90;;;-144.05;52.85;56935.91;5084829;28;20035;-80
2024/03/27 06:55:29;;;;;;;7.82;2.95;;;;;;;-144.05;52.92;56901.94;5086932;28;20030;-80
2024/03/27 06:57:55;;;;;;;5.25;2.60;;;7.60;99.90;;;-144.05;52.67;56938.03;5084210;28;20029;-80
2024/03/27 07:00:21;;;;;;;7.22;3.40;;;8.00;99.90;;;-144.05;53.09;56940.16;5079262;28;20063;-82
2024/03/27 07:02:48;;;;;;;11.95;3.22;;;13.50;99.90;;;-144.05;52.94;56950.78;5078606;28;20152;-79
2024/03/27 07:05:19;;;;;;;11.75;3.08;;;13.90;99.90;;;-144.05;53.06;56925.28;5065964;28;20066;-80
2024/03/27 07:07:45;;;;;;;6.35;3.35;;;8.40;99.90;;;-144.05;52.20;56933.78;5085419;28;20052;-79
2024/03/27 07:10:11;;;;;;;7.38;3.08;;;;;;;-144.05;52.46;56948.66;5082934;28;20029;-80
2024/03/27 07:12:37;;;;;;;6.13;3.03;;;8.50;99.90;;;-144.05;52.65;56940.16;5083087;28;20024;-80
2024/03/27 07:15:06;;;;;;;9.13;2.47;;;13.80;99.90;;;-144.05;53.09;56938.03;5083179;28;20035;-80
2024/03/27 07:17:32;;;;;;;4.15;2.60;;;8.20;99.90;;;-144.05;52.77;56938.03;5065411;28;20020;-79
2024/03/27 07:19:59;;;;;;;4.93;2.65;;;8.70;99.90;;;-144.05;52.87;56925.28;5081468;28;20131;-80
2024/03/27 07:22:25;;;;;;;7.32;2.88;;;7.90;99.90;;;-144.05;53.00;56984.78;5085303;28;20028;-77
2024/03/27 07:24:52;;;;;;;5.15;2.42;;;9.80;99.90;;;-144.05;53.04;56938.03;5079998;28;20039;-79
2024/03/27 07:27:18;;;;;;;8.70;3.22;;;7.90;99.90;;;-144.05;53.06;56918.94;5078178;28;20037;-78
2024/03/27 07:29:45;;;;;;;5.05;2.72;;;11.20;99.90;;;-144.05;53.39;56910.44;5070432;28;20029;-80
2024/03/27 07:32:11;;;;;;;8.52;3.20;;;8.30;99.90;;;-144.05;53.16;56918.94;5059644;28;20025;-78
2024/03/27 07:34:37;;;;;;;5.53;2.65;;;14.00;99.90;;;-144.05;53.61;56931.66;5089552;28;20027;-79
2024/03/27 07:37:03;;;;;;;5.95;2.55;;;8.10;99.90;;;-144.05;53.46;56950.78;5091842;28;20027;-81
2024/03/27 07:39:30;;;;;;;6.95;2.72;;;10.80;99.90;;;-144.05;53.43;56916.81;5063710;28;20028;-78
2024/03/27 07:41:56;;;;;;;7.15;2.80;;;;;;;-144.05;53.55;56923.19;5082976;28;20040;-78
2024/03/27 07:44:23;;;;;;;8.15;2.88;;;14.00;99.90;;;-144.05;53.87;56893.44;5089805;28;20028;-80
2024/03/27 07:46:49;;;;;;;5.45;2.83;;;;;;;-144.05;54.10;56940.16;5087560;28;20157;-78
2024/03/27 07:49:15;;;;;;;6.10;2.70;;;;;;;-144.05;54.47;56908.31;5065487;28;20035;-79
2024/03/27 07:51:41;;;;;;;5.82;2.53;;;14.40;99.90;;;-144.05;54.71;56923.19;5086551;28;20024;-80
2024/03/27 07:54:07;;;;;;;7.85;3.00;;;9.20;99.90;;;-144.05;54.03;56925.28;5060458;28;20032;-78
2024/03/27 07:56:33;;;;;;;9.18;2.70;;;9.30;99.90;;;-144.05;53.84;56938.03;5085952;28;20054;-78
2024/03/27 07:58:59;;;;;;;8.68;3.13;;;14.50;99.90;;;-144.05;53.43;56918.94;5089703;28;20024;-79
2024/03/27 08:01:26;;;;;;;6.40;2.58;;;;;;;-144.05;53.86;56952.91;5081400;28;20097;-79
2024/03/27 08:03:51;;;;;;;7.13;2.70;;;9.50;99.90;;;-144.05;54.25;56921.06;5089433;28;20032;-79
2024/03/27 08:06:17;;;;;;;7.10;2.92;;;8.90;99.90;;;-144.05;54.30;56918.94;5071037;28;20036;-78
2024/03/27 08:08:43;;;;;;;2.92;2.33;;;14.30;99.90;;;-144.05;54.36;56933.78;5069454;28;20024;-80
2024/03/27 08:11:10;;;;;;;6.97;2.45;;;9.00;99.90;;;-144.05;54.76;56906.19;5064088;28;20478;-80
2024/03/27 08:13:36;;;;;;;6.72;2.38;;;13.90;99.90;;;-144.05;54.94;56923.19;5069831;28;20024;-78
2024/03/27 08:16:05;;;;;;;3.58;2.30;;;;;;;-144.05;55.00;56908.31;5079474;28;20422;-80
2024/03/27 08:18:46;;;;;;;4.97;2.60;;;9.40;99.90;;;-144.05;54.62;56916.81;5076465;28;20027;-79
2024/03/27 08:21:12;;;;;;;6.60;2.80;;;14.50;99.90;;;-144.05;54.59;56923.19;5078582;28;20033;-79
2024/03/27 08:23:39;;;;;;;4.68;2.45;;;;;;;-144.05;54.33;56897.69;5080564;28;20028;-79
2024/03/27 08:26:05;;;;;;;7.93;2.85;;;14.40;99.90;;;-144.05;55.06;56921.06;5077809;28;20024;-80
2024/03/27 08:28:31;;;;;;;6.00;2.78;;;14.10;99.90;;;-144.05;54.38;56938.03;5059214;28;20033;-82
2024/03/27 08:30:57;;;;;;;4.03;2.20;;;14.30;99.90;;;-144.05;54.71;56927.41;5059609;28;20023;-78
2024/03/27 08:33:23;;;;;;;7.55;2.40;;;13.60;99.90;;;-144.05;54.36;56912.56;5081536;28;20132;-79
2024/03/27 08:35:51;;;;;;;3.50;2.53;;;14.10;99.90;;;-144.05;54.81;56927.41;5085759;28;20040;-78
2024/03/27 08:38:17;;;;;;;8.75;2.97;;;9.90;99.90;;;-144.05;54.22;56927.41;5081831;28;20028;-79
2024/03/27 08:40:52;;;;;;;7.28;3.00;;;12.20;99.90;;;-144.05;54.36;56921.06;5059557;28;20111;-80
2024/03/27 08:43:19;;;;;;;3.88;2.97;;;14.50;99.90;;;-144.05;55.04;56931.66;5077107;28;20028;-78
2024/03/27 08:45:45;;;;;;;5.82;3.03;;;;;;;-144.05;54.45;56897.69;5077639;28;20058;-78
2024/03/27 08:48:13;;;;;;;6.68;2.50;;;10.20;99.90;;;-144.05;54.58;56931.66;5063358;28;20029;-79
2024/03/27 08:50:40;;;;;;;10.88;3.20;;;14.20;99.90;;;-144.05;55.47;56912.56;5086581;28;20030;-78
2024/03/27 08:53:06;;;;;;;6.28;2.75;;;;;;;-144.05;55.17;56912.56;5064988;28;20052;-76
2024/03/27 08:55:43;;;;;;;5.15;2.50;;;9.40;99.90;;;-144.05;54.79;56940.16;5068055;28;20060;-78
2024/03/27 08:58:10;;;;;;;6.93;2.47;;;9.10;99.90;;;-144.05;54.61;56916.81;5060185;28;20033;-80
2024/03/27 09:00:40;;;;;;;5.40;2.67;;;12.30;99.90;;;-144.05;56.00;56906.19;5067779;28;20096;-77
2024/03/27 09:03:06;;;;;;;6.03;3.13;;;9.80;99.90;;;-144.05;55.28;56908.31;5103992;28;20020;-79
2024/03/27 09:05:32;;;;;;;6.05;2.80;;;9.50;99.90;;;-144.05;55.75;56933.78;5089896;28;20202;-79
2024/03/27 09:07:58;;;;;;;6.35;3.25;;;9.30;99.90;;;-144.05;56.46;56952.91;5081143;28;20056;-79
2024/03/27 09:10:27;;;;;;;3.58;2.97;;;14.60;99.90;;;-144.05;56.09;56912.56;5083559;28;20036;-80
2024/03/27 09:12:53;;;;;;;4.00;3.10;;;;;;;-144.05;56.79;56916.81;5066616;28;20020;-80
2024/03/27 09:15:19;;;;;;;7.20;2.95;;;;;;;-144.05;56.11;56927.41;5084661;28;20036;-78
2024/03/27 09:17:45;;;;;;;5.75;2.88;;;13.30;99.90;;;-144.05;56.09;56910.44;5084098;28;20020;-77
2024/03/27 09:20:11;;;;;;;8.80;3.17;;;13.80;99.90;;;-144.05;55.16;56904.06;5081270;28;20029;-78
2024/03/27 09:22:37;;;;;;;5.63;2.70;;;12.30;99.90;;;-144.05;55.64;56923.19;5090505;28;20059;-79
2024/03/27 09:25:04;;;;;;;6.45;3.17;;;13.70;99.90;;;-144.05;56.04;56929.53;5060168;28;20025;-79
2024/03/27 09:27:33;;;;;;;6.97;2.88;;;9.30;99.90;;;-144.05;56.04;56921.06;5082619;28;20327;-78
2024/03/27 09:29:58;;;;;;;7.25;3.75;;;13.50;99.90;;;-144.05;55.62;56925.28;5073078;28;20085;-80
2024/03/27 09:32:25;;;;;;;11.02;3.35;;;;;;;-144.05;55.31;56908.31;5079519;28;20114;-80
2024/03/27 09:34:53;;;;;;;7.75;2.95;;;14.20;99.90;;;-144.05;54.80;56884.94;5066217;28;20028;-82
2024/03/27 09:37:19;;;;;;;7.28;3.20;;;14.50;99.90;;;-144.05;54.27;56931.66;5085160;28;20116;-78
2024/03/27 09:39:45;;;;;;;7.82;3.22;;;14.00;99.90;;;-144.05;54.85;56933.78;5086085;28;20024;-79
2024/03/27 09:42:13;;;;;;;5.47;3.08;;;14.40;99.90;;;-144.05;55.48;56904.06;5083689;28;20031;-79
2024/03/27 09:44:39;;;;;;;3.78;2.90;;;8.80;99.90;;;-144.05;55.67;56923.19;5086364;28;20095;-79
2024/03/27 09:47:08;;;;;;;6.68;4.15;;;12.40;99.90;;;-144.05;55.07;56946.53;5079565;28;20021;-79
2024/03/27 09:49:34;;;;;;;8.38;3.97;;;14.60;99.90;;;-144.05;55.22;56925.28;5086562;28;20051;-79
2024/03/27 09:52:06;;;;;;;10.80;3.97;;;12.40;99.90;;;-144.05;56.21;56925.28;5070353;28;20021;-79
2024/03/27 09:54:33;;;;;;;7.18;3.47;;;8.80;99.90;;;-144.05;56.87;56929.53;5085472;28;20067;-79
2024/03/27 09:56:59;;;;;;;5.80;3.47;;;13.40;99.90;;;-144.05;57.04;56895.56;5076187;28;20469;-78
2024/03/27 09:59:25;;;;;;;6.22;2.92;;;;;;;-144.05;57.66;56967.78;5083556;28;20033;-79
2024/03/27 10:02:07;;;;;;;5.47;3.08;;;9.40;99.90;;;-144.05;57.40;56938.03;5083393;28;20052;-79
2024/03/27 10:04:33;;;;;;;6.30;3.22;;;9.70;99.90;;;-144.05;57.38;56959.28;5065815;28;20417;-81
2024/03/27 10:06:59;;;;;;;3.33;2.53;;;;;;;-144.05;57.68;56921.06;5087009;28;20112;-80
2024/03/27 10:09:25;;;;;;;4.43;1.85;;;13.80;99.90;;;-144.05;56.47;56929.53;5069322;28;20028;-82
2024/03/27 10:11:52;;;;;;;3.47;2.10;;;;;;;-144.05;55.87;56942.28;5094231;28;20028;-80
2024/03/27 10:14:18;;;;;;;3.40;2.15;;;14.20;99.90;;;-144.05;55.90;56908.31;5096540;28;20025;-79
2024/03/27 10:16:44;;;;;;;4.28;2.15;;;9.00;99.90;;;-144.05;56.25;56938.03;5109182;28;20028;-83
2024/03/27 10:19:11;;;;;;;7.35;2.20;;;9.10;99.90;;;-144.05;55.54;56921.06;5065011;28;20086;-79
2024/03/27 10:21:37;;;;;;;3.38;1.92;;;8.70;99.90;;;-144.05;56.76;56927.41;5059184;28;20032;-80
2024/03/27 10:24:07;;;;;;;2.65;1.80;;;9.10;99.90;;;-144.05;57.71;56914.69;5075023;28;20035;-79